sensor_id;sensor_type;location;lat;lon;timestamp;pressure;altitude;pressure_sealevel;temperature;humidity
10587;BME280;5341;47.606;7.576;2023-05-24T00:00:33;98936.66;;;22.35;45.58
10587;BME280;5341;47.606;7.576;2023-05-24T00:03:00;98936.09;;;22.33;45.59
10587;BME280;5341;47.606;7.576;2023-05-24T00:05:29;98933.66;;;22.32;45.75
10587;BME280;5341;47.606;7.576;2023-05-24T00:07:58;98930.34;;;22.30;45.67
10587;BME280;5341;47.606;7.576;2023-05-24T00:10:26;98938.19;;;22.26;45.69
10587;BME280;5341;47.606;7.576;2023-05-24T00:12:53;98943.06;;;22.24;45.56
10587;BME280;5341;47.606;7.576;2023-05-24T00:15:20;98937.88;;;22.22;45.48
10587;BME280;5341;47.606;7.576;2023-05-24T00:17:48;98937.31;;;22.20;45.61
10587;BME280;5341;47.606;7.576;2023-05-24T00:20:16;98939.47;;;22.18;45.56
10587;BME280;5341;47.606;7.576;2023-05-24T00:22:45;98946.00;;;22.17;45.41
10587;BME280;5341;47.606;7.576;2023-05-24T00:25:14;98939.13;;;22.15;45.58
10587;BME280;5341;47.606;7.576;2023-05-24T00:27:41;98941.03;;;22.14;45.59
10587;BME280;5341;47.606;7.576;2023-05-24T00:30:10;98941.50;;;22.06;45.34
10587;BME280;5341;47.606;7.576;2023-05-24T00:32:37;98947.66;;;22.02;45.39
10587;BME280;5341;47.606;7.576;2023-05-24T00:35:05;98946.25;;;21.99;45.39
10587;BME280;5341;47.606;7.576;2023-05-24T00:37:32;98945.44;;;21.99;45.20
10587;BME280;5341;47.606;7.576;2023-05-24T00:40:00;98942.66;;;21.93;45.34
10587;BME280;5341;47.606;7.576;2023-05-24T00:42:29;98935.47;;;21.87;45.16
10587;BME280;5341;47.606;7.576;2023-05-24T00:44:56;98937.88;;;21.84;45.45
10587;BME280;5341;47.606;7.576;2023-05-24T00:47:23;98938.16;;;21.82;45.28
10587;BME280;5341;47.606;7.576;2023-05-24T00:49:51;98934.00;;;21.80;45.06
10587;BME280;5341;47.606;7.576;2023-05-24T00:52:18;98938.88;;;21.78;45.24
10587;BME280;5341;47.606;7.576;2023-05-24T00:54:46;98930.41;;;21.74;45.12
10587;BME280;5341;47.606;7.576;2023-05-24T00:57:13;98939.91;;;21.72;45.14
10587;BME280;5341;47.606;7.576;2023-05-24T00:59:43;98937.16;;;21.72;45.05
10587;BME280;5341;47.606;7.576;2023-05-24T01:02:11;98934.97;;;21.69;45.13
10587;BME280;5341;47.606;7.576;2023-05-24T01:04:40;98935.94;;;21.62;45.20
10587;BME280;5341;47.606;7.576;2023-05-24T01:07:14;98933.38;;;21.56;45.01
10587;BME280;5341;47.606;7.576;2023-05-24T01:09:52;98924.91;;;21.52;45.24
10587;BME280;5341;47.606;7.576;2023-05-24T01:12:27;98927.06;;;21.50;45.07
10587;BME280;5341;47.606;7.576;2023-05-24T01:15:07;98928.94;;;21.50;44.96
10587;BME280;5341;47.606;7.576;2023-05-24T01:17:45;98926.22;;;21.50;45.13
10587;BME280;5341;47.606;7.576;2023-05-24T01:20:16;98933.97;;;21.41;44.96
10587;BME280;5341;47.606;7.576;2023-05-24T01:23:04;98928.53;;;21.41;44.95
10587;BME280;5341;47.606;7.576;2023-05-24T01:25:44;98927.97;;;21.39;44.87
10587;BME280;5341;47.606;7.576;2023-05-24T01:28:16;98923.34;;;21.40;44.78
10587;BME280;5341;47.606;7.576;2023-05-24T01:30:44;98927.13;;;21.39;44.81
10587;BME280;5341;47.606;7.576;2023-05-24T01:33:12;98932.84;;;21.37;44.96
10587;BME280;5341;47.606;7.576;2023-05-24T01:35:40;98925.19;;;21.34;44.88
10587;BME280;5341;47.606;7.576;2023-05-24T01:38:08;98930.00;;;21.32;44.65
10587;BME280;5341;47.606;7.576;2023-05-24T01:40:37;98931.09;;;21.31;44.69
10587;BME280;5341;47.606;7.576;2023-05-24T01:43:16;98927.53;;;21.30;44.54
10587;BME280;5341;47.606;7.576;2023-05-24T01:45:52;98932.97;;;21.30;44.71
10587;BME280;5341;47.606;7.576;2023-05-24T01:48:30;98926.72;;;21.30;44.76
10587;BME280;5341;47.606;7.576;2023-05-24T01:51:05;98931.59;;;21.28;44.52
10587;BME280;5341;47.606;7.576;2023-05-24T01:53:39;98922.84;;;21.26;44.60
10587;BME280;5341;47.606;7.576;2023-05-24T01:56:10;98925.81;;;21.24;44.51
10587;BME280;5341;47.606;7.576;2023-05-24T01:58:40;98930.41;;;21.24;44.59
10587;BME280;5341;47.606;7.576;2023-05-24T02:01:10;98927.38;;;21.20;44.55
10587;BME280;5341;47.606;7.576;2023-05-24T02:03:39;98926.78;;;21.18;44.66
10587;BME280;5341;47.606;7.576;2023-05-24T02:06:06;98925.38;;;21.16;44.47
10587;BME280;5341;47.606;7.576;2023-05-24T02:08:35;98924.81;;;21.14;44.42
10587;BME280;5341;47.606;7.576;2023-05-24T02:11:02;98924.22;;;21.12;44.46
10587;BME280;5341;47.606;7.576;2023-05-24T02:13:30;98924.47;;;21.10;44.48
10587;BME280;5341;47.606;7.576;2023-05-24T02:15:59;98932.28;;;21.06;44.50
10587;BME280;5341;47.606;7.576;2023-05-24T02:18:27;98929.25;;;21.03;44.48
10587;BME280;5341;47.606;7.576;2023-05-24T02:20:59;98934.09;;;21.01;44.36
10587;BME280;5341;47.606;7.576;2023-05-24T02:23:27;98935.19;;;21.00;44.42
10587;BME280;5341;47.606;7.576;2023-05-24T02:25:54;98928.34;;;20.97;44.21
10587;BME280;5341;47.606;7.576;2023-05-24T02:28:22;98934.03;;;20.96;44.47
10587;BME280;5341;47.606;7.576;2023-05-24T02:30:49;98921.47;;;20.95;44.35
10587;BME280;5341;47.606;7.576;2023-05-24T02:33:18;98922.81;;;20.92;44.04
10587;BME280;5341;47.606;7.576;2023-05-24T02:35:45;98920.09;;;20.92;44.28
10587;BME280;5341;47.606;7.576;2023-05-24T02:38:13;98918.19;;;20.93;44.26
10587;BME280;5341;47.606;7.576;2023-05-24T02:40:40;98921.97;;;20.92;44.23
10587;BME280;5341;47.606;7.576;2023-05-24T02:43:08;98910.28;;;20.91;44.16
10587;BME280;5341;47.606;7.576;2023-05-24T02:45:35;98916.78;;;20.90;44.44
10587;BME280;5341;47.606;7.576;2023-05-24T02:48:03;98916.78;;;20.90;44.25
10587;BME280;5341;47.606;7.576;2023-05-24T02:50:32;98917.88;;;20.89;44.17
10587;BME280;5341;47.606;7.576;2023-05-24T02:53:01;98908.06;;;20.88;44.29
10587;BME280;5341;47.606;7.576;2023-05-24T02:55:28;98913.75;;;20.87;44.26
10587;BME280;5341;47.606;7.576;2023-05-24T02:57:57;98906.66;;;20.86;44.24
10587;BME280;5341;47.606;7.576;2023-05-24T03:00:24;98905.22;;;20.83;44.27
10587;BME280;5341;47.606;7.576;2023-05-24T03:02:53;98898.16;;;20.82;44.17
10587;BME280;5341;47.606;7.576;2023-05-24T03:05:25;98903.25;;;20.78;44.13
10587;BME280;5341;47.606;7.576;2023-05-24T03:07:54;98899.72;;;20.78;44.25
10587;BME280;5341;47.606;7.576;2023-05-24T03:10:23;98905.41;;;20.76;44.09
10587;BME280;5341;47.606;7.576;2023-05-24T03:12:50;98899.97;;;20.76;44.08
10587;BME280;5341;47.606;7.576;2023-05-24T03:15:18;98889.34;;;20.75;44.20
10587;BME280;5341;47.606;7.576;2023-05-24T03:17:46;98895.84;;;20.74;44.32
10587;BME280;5341;47.606;7.576;2023-05-24T03:20:15;98905.06;;;20.73;44.31
10587;BME280;5341;47.606;7.576;2023-05-24T03:22:45;98904.47;;;20.71;44.15
10587;BME280;5341;47.606;7.576;2023-05-24T03:25:14;98900.09;;;20.70;44.10
10587;BME280;5341;47.606;7.576;2023-05-24T03:27:42;98898.47;;;20.69;44.28
10587;BME280;5341;47.606;7.576;2023-05-24T03:30:10;98892.44;;;20.67;44.26
10587;BME280;5341;47.606;7.576;2023-05-24T03:32:46;98897.31;;;20.65;44.17
10587;BME280;5341;47.606;7.576;2023-05-24T03:35:14;98893.78;;;20.64;44.39
10587;BME280;5341;47.606;7.576;2023-05-24T03:37:41;98893.44;;;20.61;44.38
10587;BME280;5341;47.606;7.576;2023-05-24T03:40:09;98889.28;;;20.58;44.34
10587;BME280;5341;47.606;7.576;2023-05-24T03:42:52;98895.47;;;20.54;44.38
10587;BME280;5341;47.606;7.576;2023-05-24T03:45:28;98910.38;;;20.51;44.38
10587;BME280;5341;47.606;7.576;2023-05-24T03:47:56;98911.09;;;20.46;44.45
10587;BME280;5341;47.606;7.576;2023-05-24T03:50:24;98910.50;;;20.44;44.38
10587;BME280;5341;47.606;7.576;2023-05-24T03:52:51;98915.38;;;20.42;44.43
10587;BME280;5341;47.606;7.576;2023-05-24T03:55:19;98910.38;;;20.39;44.34
10587;BME280;5341;47.606;7.576;2023-05-24T03:57:48;98915.00;;;20.39;44.37
10587;BME280;5341;47.606;7.576;2023-05-24T04:00:18;98916.31;;;20.36;44.46
10587;BME280;5341;47.606;7.576;2023-05-24T04:02:47;98915.94;;;20.33;44.30
10587;BME280;5341;47.606;7.576;2023-05-24T04:05:16;98915.94;;;20.33;44.36
10587;BME280;5341;47.606;7.576;2023-05-24T04:07:44;98917.03;;;20.32;44.38
10587;BME280;5341;47.606;7.576;2023-05-24T04:10:11;98913.47;;;20.31;44.23
10587;BME280;5341;47.606;7.576;2023-05-24T04:12:40;98919.16;;;20.30;44.47
10587;BME280;5341;47.606;7.576;2023-05-24T04:15:08;98916.69;;;20.28;44.29
10587;BME280;5341;47.606;7.576;2023-05-24T04:17:41;98931.34;;;20.27;44.23
10587;BME280;5341;47.606;7.576;2023-05-24T04:20:09;98912.56;;;20.26;44.19
10587;BME280;5341;47.606;7.576;2023-05-24T04:22:37;98928.88;;;20.26;44.18
10587;BME280;5341;47.606;7.576;2023-05-24T04:25:05;98922.59;;;20.25;44.33
10587;BME280;5341;47.606;7.576;2023-05-24T04:27:34;98927.22;;;20.25;44.35
10587;BME280;5341;47.606;7.576;2023-05-24T04:30:02;98931.47;;;20.20;44.48
10587;BME280;5341;47.606;7.576;2023-05-24T04:32:30;98927.34;;;20.18;44.26
10587;BME280;5341;47.606;7.576;2023-05-24T04:34:59;98931.13;;;20.17;44.28
10587;BME280;5341;47.606;7.576;2023-05-24T04:37:29;98934.09;;;20.15;44.29
10587;BME280;5341;47.606;7.576;2023-05-24T04:39:57;98931.38;;;20.15;44.23
10587;BME280;5341;47.606;7.576;2023-05-24T04:42:24;98933.25;;;20.15;44.18
10587;BME280;5341;47.606;7.576;2023-05-24T04:44:52;98931.38;;;20.15;44.15
10587;BME280;5341;47.606;7.576;2023-05-24T04:47:20;98940.34;;;20.16;44.15
10587;BME280;5341;47.606;7.576;2023-05-24T04:49:47;98937.63;;;20.16;44.29
10587;BME280;5341;47.606;7.576;2023-05-24T04:52:17;98941.66;;;20.13;44.36
10587;BME280;5341;47.606;7.576;2023-05-24T04:54:45;98942.72;;;20.12;44.17
10587;BME280;5341;47.606;7.576;2023-05-24T04:57:13;98947.31;;;20.12;44.23
10587;BME280;5341;47.606;7.576;2023-05-24T04:59:42;98943.16;;;20.09;44.33
10587;BME280;5341;47.606;7.576;2023-05-24T05:02:09;98941.53;;;20.08;44.39
10587;BME280;5341;47.606;7.576;2023-05-24T05:04:37;98944.72;;;20.05;44.43
10587;BME280;5341;47.606;7.576;2023-05-24T05:07:05;98951.47;;;20.03;44.43
10587;BME280;5341;47.606;7.576;2023-05-24T05:09:35;98948.16;;;20.01;44.41
10587;BME280;5341;47.606;7.576;2023-05-24T05:12:03;98941.91;;;20.00;44.46
10587;BME280;5341;47.606;7.576;2023-05-24T05:14:31;98943.81;;;20.00;44.37
10587;BME280;5341;47.606;7.576;2023-05-24T05:16:59;98943.19;;;19.98;44.51
10587;BME280;5341;47.606;7.576;2023-05-24T05:19:26;98949.69;;;19.97;44.70
10587;BME280;5341;47.606;7.576;2023-05-24T05:21:54;98951.00;;;19.94;44.48
10587;BME280;5341;47.606;7.576;2023-05-24T05:24:22;98953.94;;;19.93;44.66
10587;BME280;5341;47.606;7.576;2023-05-24T05:26:51;98940.38;;;19.93;44.69
10587;BME280;5341;47.606;7.576;2023-05-24T05:29:19;98947.13;;;19.90;44.62
10587;BME280;5341;47.606;7.576;2023-05-24T05:31:46;98953.59;;;19.89;44.66
10587;BME280;5341;47.606;7.576;2023-05-24T05:34:14;98946.75;;;19.86;44.71
10587;BME280;5341;47.606;7.576;2023-05-24T05:36:41;98945.91;;;19.86;44.57
10587;BME280;5341;47.606;7.576;2023-05-24T05:39:08;98947.81;;;19.85;44.54
10587;BME280;5341;47.606;7.576;2023-05-24T05:41:37;98951.34;;;19.86;44.53
10587;BME280;5341;47.606;7.576;2023-05-24T05:44:11;98954.88;;;19.86;44.67
10587;BME280;5341;47.606;7.576;2023-05-24T05:46:38;98949.47;;;19.86;44.60
10587;BME280;5341;47.606;7.576;2023-05-24T05:49:08;98956.56;;;19.87;44.69
10587;BME280;5341;47.606;7.576;2023-05-24T05:51:36;98959.28;;;19.87;44.54
10587;BME280;5341;47.606;7.576;2023-05-24T05:54:05;98963.03;;;19.86;44.48
10587;BME280;5341;47.606;7.576;2023-05-24T05:56:38;98961.16;;;19.87;44.70
10587;BME280;5341;47.606;7.576;2023-05-24T05:59:12;98962.00;;;19.87;44.48
10587;BME280;5341;47.606;7.576;2023-05-24T06:01:40;98959.50;;;19.86;44.75
10587;BME280;5341;47.606;7.576;2023-05-24T06:04:08;98963.28;;;19.85;44.76
10587;BME280;5341;47.606;7.576;2023-05-24T06:06:36;98968.94;;;19.83;44.78
10587;BME280;5341;47.606;7.576;2023-05-24T06:09:03;98968.94;;;19.83;44.76
10587;BME280;5341;47.606;7.576;2023-05-24T06:11:30;98970.81;;;19.83;44.78
10587;BME280;5341;47.606;7.576;2023-05-24T06:13:58;98956.69;;;19.81;44.63
10587;BME280;5341;47.606;7.576;2023-05-24T06:16:28;98971.31;;;19.80;44.88
10587;BME280;5341;47.606;7.576;2023-05-24T06:18:57;98967.19;;;19.77;44.86
10587;BME280;5341;47.606;7.576;2023-05-24T06:21:24;98969.31;;;19.75;45.01
10587;BME280;5341;47.606;7.576;2023-05-24T06:23:52;98976.03;;;19.73;44.97
10587;BME280;5341;47.606;7.576;2023-05-24T06:26:19;98975.66;;;19.69;45.21
10587;BME280;5341;47.606;7.576;2023-05-24T06:28:47;98983.00;;;19.69;45.02
10587;BME280;5341;47.606;7.576;2023-05-24T06:31:14;98987.84;;;19.67;45.08
10587;BME280;5341;47.606;7.576;2023-05-24T06:33:43;98982.66;;;19.65;45.04
10587;BME280;5341;47.606;7.576;2023-05-24T06:36:10;98987.25;;;19.65;45.09
10587;BME280;5341;47.606;7.576;2023-05-24T06:38:38;98991.03;;;19.64;45.19
10587;BME280;5341;47.606;7.576;2023-05-24T06:41:06;99000.22;;;19.63;45.31
10587;BME280;5341;47.606;7.576;2023-05-24T06:43:34;99003.16;;;19.61;45.32
10587;BME280;5341;47.606;7.576;2023-05-24T06:46:02;99006.34;;;19.58;45.41
10587;BME280;5341;47.606;7.576;2023-05-24T06:48:29;99007.63;;;19.55;45.43
10587;BME280;5341;47.606;7.576;2023-05-24T06:50:58;99007.03;;;19.53;45.46
10587;BME280;5341;47.606;7.576;2023-05-24T06:53:25;99017.88;;;19.53;45.46
10587;BME280;5341;47.606;7.576;2023-05-24T06:55:53;99015.84;;;19.49;45.34
10587;BME280;5341;47.606;7.576;2023-05-24T06:58:20;99014.66;;;19.45;45.41
10587;BME280;5341;47.606;7.576;2023-05-24T07:00:48;99019.84;;;19.46;45.30
10587;BME280;5341;47.606;7.576;2023-05-24T07:03:16;99014.19;;;19.48;45.39
10587;BME280;5341;47.606;7.576;2023-05-24T07:05:45;99020.44;;;19.48;45.50
10587;BME280;5341;47.606;7.576;2023-05-24T07:08:13;99024.59;;;19.51;45.49
10587;BME280;5341;47.606;7.576;2023-05-24T07:10:41;99020.81;;;19.52;45.47
10587;BME280;5341;47.606;7.576;2023-05-24T07:13:09;99026.25;;;19.52;45.38
10587;BME280;5341;47.606;7.576;2023-05-24T07:15:40;99020.81;;;19.52;45.60
10587;BME280;5341;47.606;7.576;2023-05-24T07:18:08;99020.81;;;19.52;45.72
10587;BME280;5341;47.606;7.576;2023-05-24T07:20:35;99019.25;;;19.44;45.83
10587;BME280;5341;47.606;7.576;2023-05-24T07:23:02;99028.22;;;19.45;45.77
10587;BME280;5341;47.606;7.576;2023-05-24T07:25:33;99020.09;;;19.45;45.82
10587;BME280;5341;47.606;7.576;2023-05-24T07:28:01;99026.09;;;19.47;45.88
10587;BME280;5341;47.606;7.576;2023-05-24T07:30:28;99032.34;;;19.47;45.91
10587;BME280;5341;47.606;7.576;2023-05-24T07:32:56;99036.47;;;19.50;45.96
10587;BME280;5341;47.606;7.576;2023-05-24T07:35:23;99031.69;;;19.52;45.88
10587;BME280;5341;47.606;7.576;2023-05-24T07:37:50;99034.38;;;19.52;45.83
10587;BME280;5341;47.606;7.576;2023-05-24T07:40:18;99033.31;;;19.53;45.88
10587;BME280;5341;47.606;7.576;2023-05-24T07:42:47;99041.47;;;19.53;45.91
10587;BME280;5341;47.606;7.576;2023-05-24T07:45:15;99034.59;;;19.50;46.02
10587;BME280;5341;47.606;7.576;2023-05-24T07:47:42;99032.94;;;19.49;45.94
10587;BME280;5341;47.606;7.576;2023-05-24T07:50:10;99023.16;;;19.48;45.85
10587;BME280;5341;47.606;7.576;2023-05-24T07:52:37;99031.69;;;19.52;45.76
10587;BME280;5341;47.606;7.576;2023-05-24T07:55:05;99028.53;;;19.55;45.89
10587;BME280;5341;47.606;7.576;2023-05-24T07:57:33;99031.00;;;19.56;46.02
10587;BME280;5341;47.606;7.576;2023-05-24T08:00:02;99032.63;;;19.57;45.99
10587;BME280;5341;47.606;7.576;2023-05-24T08:02:37;99035.94;;;19.59;45.79
10587;BME280;5341;47.606;7.576;2023-05-24T08:05:05;99039.25;;;19.61;45.71
10587;BME280;5341;47.606;7.576;2023-05-24T08:07:35;99034.44;;;19.64;45.61
10587;BME280;5341;47.606;7.576;2023-05-24T08:10:02;99037.50;;;19.67;45.67
10587;BME280;5341;47.606;7.576;2023-05-24T08:12:30;99030.19;;;19.68;45.70
10587;BME280;5341;47.606;7.576;2023-05-24T08:14:57;99035.97;;;19.71;45.72
10587;BME280;5341;47.606;7.576;2023-05-24T08:17:26;99027.00;;;19.71;45.83
10587;BME280;5341;47.606;7.576;2023-05-24T08:19:55;99032.41;;;19.71;45.94
10587;BME280;5341;47.606;7.576;2023-05-24T08:22:23;99032.66;;;19.69;46.00
10587;BME280;5341;47.606;7.576;2023-05-24T08:24:50;99037.97;;;19.64;45.93
10587;BME280;5341;47.606;7.576;2023-05-24T08:27:18;99032.78;;;19.63;45.86
10587;BME280;5341;47.606;7.576;2023-05-24T08:29:46;99040.31;;;19.60;46.03
10587;BME280;5341;47.606;7.576;2023-05-24T08:32:13;99035.72;;;19.61;45.90
10587;BME280;5341;47.606;7.576;2023-05-24T08:34:42;99040.31;;;19.60;46.00
10587;BME280;5341;47.606;7.576;2023-05-24T08:37:10;99035.13;;;19.59;46.04
10587;BME280;5341;47.606;7.576;2023-05-24T08:39:40;99034.53;;;19.57;45.96
10587;BME280;5341;47.606;7.576;2023-05-24T08:42:08;99030.16;;;19.56;46.00
10587;BME280;5341;47.606;7.576;2023-05-24T08:44:39;99036.41;;;19.56;45.91
10587;BME280;5341;47.606;7.576;2023-05-24T08:47:08;99042.91;;;19.55;46.13
10587;BME280;5341;47.606;7.576;2023-05-24T08:49:36;99043.94;;;19.54;45.95
10587;BME280;5341;47.606;7.576;2023-05-24T08:52:06;99052.94;;;19.55;45.94
10587;BME280;5341;47.606;7.576;2023-05-24T08:54:34;99052.06;;;19.54;46.07
10587;BME280;5341;47.606;7.576;2023-05-24T08:57:03;99042.91;;;19.55;45.97
10587;BME280;5341;47.606;7.576;2023-05-24T08:59:30;99051.88;;;19.56;46.12
10587;BME280;5341;47.606;7.576;2023-05-24T09:01:59;99048.34;;;19.55;46.15
10587;BME280;5341;47.606;7.576;2023-05-24T09:04:26;99041.22;;;19.54;46.24
10587;BME280;5341;47.606;7.576;2023-05-24T09:06:55;99046.66;;;19.54;46.40
10587;BME280;5341;47.606;7.576;2023-05-24T09:09:26;99053.38;;;19.52;46.56
10587;BME280;5341;47.606;7.576;2023-05-24T09:11:56;99045.69;;;19.49;46.52
10587;BME280;5341;47.606;7.576;2023-05-24T09:14:26;99051.56;;;19.46;46.46
10587;BME280;5341;47.606;7.576;2023-05-24T09:16:55;99042.63;;;19.45;46.46
10587;BME280;5341;47.606;7.576;2023-05-24T09:19:22;99040.13;;;19.44;46.32
10587;BME280;5341;47.606;7.576;2023-05-24T09:21:52;99044.50;;;19.45;46.48
10587;BME280;5341;47.606;7.576;2023-05-24T09:24:22;99046.16;;;19.46;46.47
10587;BME280;5341;47.606;7.576;2023-05-24T09:26:51;99048.03;;;19.45;46.53
10587;BME280;5341;47.606;7.576;2023-05-24T09:29:21;99050.75;;;19.45;46.42
10587;BME280;5341;47.606;7.576;2023-05-24T09:31:51;99048.03;;;19.45;46.43
10587;BME280;5341;47.606;7.576;2023-05-24T09:34:21;99046.16;;;19.46;46.45
10587;BME280;5341;47.606;7.576;2023-05-24T09:36:51;99055.34;;;19.45;46.48
10587;BME280;5341;47.606;7.576;2023-05-24T09:39:19;99051.81;;;19.44;46.50
10587;BME280;5341;47.606;7.576;2023-05-24T09:41:52;99056.19;;;19.45;46.55
10587;BME280;5341;47.606;7.576;2023-05-24T09:44:23;99053.69;;;19.44;46.54
10587;BME280;5341;47.606;7.576;2023-05-24T09:46:51;99061.00;;;19.43;46.67
10587;BME280;5341;47.606;7.576;2023-05-24T09:49:20;99055.81;;;19.42;46.68
10587;BME280;5341;47.606;7.576;2023-05-24T09:51:47;99060.41;;;19.41;46.50
10587;BME280;5341;47.606;7.576;2023-05-24T09:54:15;99066.91;;;19.40;46.54
10587;BME280;5341;47.606;7.576;2023-05-24T09:56:45;99067.72;;;19.41;46.53
10587;BME280;5341;47.606;7.576;2023-05-24T09:59:14;99062.06;;;19.42;46.51
10587;BME280;5341;47.606;7.576;2023-05-24T10:01:41;99067.72;;;19.41;46.59
10587;BME280;5341;47.606;7.576;2023-05-24T10:04:09;99069.38;;;19.42;46.45
10587;BME280;5341;47.606;7.576;2023-05-24T10:06:37;99074.81;;;19.42;46.53
10587;BME280;5341;47.606;7.576;2023-05-24T10:09:05;99071.84;;;19.43;46.34
10587;BME280;5341;47.606;7.576;2023-05-24T10:11:35;99078.13;;;19.44;46.51
10587;BME280;5341;47.606;7.576;2023-05-24T10:14:04;99076.00;;;19.46;46.46
10587;BME280;5341;47.606;7.576;2023-05-24T10:16:33;99069.97;;;19.44;46.55
10587;BME280;5341;47.606;7.576;2023-05-24T10:19:01;99073.50;;;19.44;46.61
10587;BME280;5341;47.606;7.576;2023-05-24T10:21:30;99078.94;;;19.44;46.68
10587;BME280;5341;47.606;7.576;2023-05-24T10:23:58;99087.78;;;19.40;46.74
10587;BME280;5341;47.606;7.576;2023-05-24T10:26:30;99081.16;;;19.36;46.60
10587;BME280;5341;47.606;7.576;2023-05-24T10:29:03;99082.91;;;19.30;46.77
10587;BME280;5341;47.606;7.576;2023-05-24T10:31:37;99083.38;;;19.27;46.79
10587;BME280;5341;47.606;7.576;2023-05-24T10:34:06;99079.84;;;19.26;46.86
10587;BME280;5341;47.606;7.576;2023-05-24T10:36:35;99085.03;;;19.28;46.74
10587;BME280;5341;47.606;7.576;2023-05-24T10:39:07;99089.00;;;19.25;46.61
10587;BME280;5341;47.606;7.576;2023-05-24T10:41:40;99081.69;;;19.26;46.69
10587;BME280;5341;47.606;7.576;2023-05-24T10:44:11;99081.50;;;19.27;46.47
10587;BME280;5341;47.606;7.576;2023-05-24T10:47:09;99080.44;;;19.28;46.63
10587;BME280;5341;47.606;7.576;2023-05-24T10:49:37;99075.00;;;19.28;46.90
10587;BME280;5341;47.606;7.576;2023-05-24T10:52:09;99076.66;;;19.29;46.67
10587;BME280;5341;47.606;7.576;2023-05-24T10:54:37;99083.72;;;19.30;46.71
10587;BME280;5341;47.606;7.576;2023-05-24T10:57:06;99074.53;;;19.31;46.63
10587;BME280;5341;47.606;7.576;2023-05-24T10:59:35;99078.53;;;19.29;46.72
10587;BME280;5341;47.606;7.576;2023-05-24T11:02:06;99074.19;;;19.28;46.58
10587;BME280;5341;47.606;7.576;2023-05-24T11:04:39;99071.22;;;19.29;46.70
10587;BME280;5341;47.606;7.576;2023-05-24T11:07:08;99077.72;;;19.28;46.86
10587;BME280;5341;47.606;7.576;2023-05-24T11:09:37;99078.31;;;19.30;46.75
10587;BME280;5341;47.606;7.576;2023-05-24T11:12:14;99070.78;;;19.32;46.60
10587;BME280;5341;47.606;7.576;2023-05-24T11:14:46;99074.66;;;19.37;46.41
10587;BME280;5341;47.606;7.576;2023-05-24T11:17:20;99073.97;;;19.41;46.54
10587;BME280;5341;47.606;7.576;2023-05-24T11:19:50;99076.47;;;19.43;46.64
10587;BME280;5341;47.606;7.576;2023-05-24T11:22:19;99080.81;;;19.44;46.63
10587;BME280;5341;47.606;7.576;2023-05-24T11:24:47;99076.81;;;19.46;46.53
10587;BME280;5341;47.606;7.576;2023-05-24T11:27:15;99067.03;;;19.45;46.57
10587;BME280;5341;47.606;7.576;2023-05-24T11:29:44;99071.28;;;19.41;46.50
10587;BME280;5341;47.606;7.576;2023-05-24T11:32:16;99073.84;;;19.36;46.24
10587;BME280;5341;47.606;7.576;2023-05-24T11:34:45;99068.59;;;19.23;46.45
10587;BME280;5341;47.606;7.576;2023-05-24T11:37:13;99068.38;;;19.24;46.86
10587;BME280;5341;47.606;7.576;2023-05-24T11:39:40;99062.13;;;19.24;46.71
10587;BME280;5341;47.606;7.576;2023-05-24T11:42:08;99061.88;;;19.25;46.92
10587;BME280;5341;47.606;7.576;2023-05-24T11:44:35;99060.16;;;19.31;46.77
10587;BME280;5341;47.606;7.576;2023-05-24T11:47:05;99059.09;;;19.32;46.85
10587;BME280;5341;47.606;7.576;2023-05-24T11:49:35;99057.56;;;19.36;46.75
10587;BME280;5341;47.606;7.576;2023-05-24T11:52:02;99047.09;;;19.40;46.75
10587;BME280;5341;47.606;7.576;2023-05-24T11:54:30;99049.94;;;19.45;46.94
10587;BME280;5341;47.606;7.576;2023-05-24T11:56:59;99056.28;;;19.50;46.82
10587;BME280;5341;47.606;7.576;2023-05-24T11:59:28;99045.63;;;19.55;46.83
10587;BME280;5341;47.606;7.576;2023-05-24T12:02:01;99050.34;;;19.60;46.88
10587;BME280;5341;47.606;7.576;2023-05-24T12:04:29;99048.00;;;19.64;46.78
10587;BME280;5341;47.606;7.576;2023-05-24T12:06:58;99045.63;;;19.67;46.84
10587;BME280;5341;47.606;7.576;2023-05-24T12:09:26;99042.44;;;19.70;46.68
10587;BME280;5341;47.606;7.576;2023-05-24T12:11:54;99040.31;;;19.72;46.70
10587;BME280;5341;47.606;7.576;2023-05-24T12:14:24;99042.59;;;19.75;46.78
10587;BME280;5341;47.606;7.576;2023-05-24T12:16:55;99040.47;;;19.77;46.90
10587;BME280;5341;47.606;7.576;2023-05-24T12:19:23;99039.63;;;19.77;46.85
10587;BME280;5341;47.606;7.576;2023-05-24T12:21:54;99040.47;;;19.77;46.66
10587;BME280;5341;47.606;7.576;2023-05-24T12:24:24;99034.22;;;19.77;46.97
10587;BME280;5341;47.606;7.576;2023-05-24T12:26:56;99036.22;;;19.81;46.96
10587;BME280;5341;47.606;7.576;2023-05-24T12:29:24;99039.66;;;19.88;47.08
10587;BME280;5341;47.606;7.576;2023-05-24T12:31:52;99033.84;;;19.97;46.91
10587;BME280;5341;47.606;7.576;2023-05-24T12:34:20;99031.59;;;20.05;46.97
10587;BME280;5341;47.606;7.576;2023-05-24T12:36:47;99027.22;;;20.16;46.96
10587;BME280;5341;47.606;7.576;2023-05-24T12:39:18;99026.16;;;20.29;46.79
10587;BME280;5341;47.606;7.576;2023-05-24T12:41:52;99018.47;;;20.37;46.53
10587;BME280;5341;47.606;7.576;2023-05-24T12:44:23;99019.31;;;20.50;46.27
10587;BME280;5341;47.606;7.576;2023-05-24T12:46:52;99006.25;;;20.63;46.24
10587;BME280;5341;47.606;7.576;2023-05-24T12:49:20;99004.41;;;20.81;46.14
10587;BME280;5341;47.606;7.576;2023-05-24T12:51:48;99006.84;;;20.94;45.89
10587;BME280;5341;47.606;7.576;2023-05-24T12:54:17;99007.13;;;21.09;45.95
10587;BME280;5341;47.606;7.576;2023-05-24T12:56:45;99005.28;;;21.26;45.46
10587;BME280;5341;47.606;7.576;2023-05-24T12:59:14;98997.88;;;21.39;44.73
10587;BME280;5341;47.606;7.576;2023-05-24T13:01:41;98995.59;;;21.47;44.69
10587;BME280;5341;47.606;7.576;2023-05-24T13:04:11;98992.69;;;21.54;44.88
10587;BME280;5341;47.606;7.576;2023-05-24T13:06:39;98988.97;;;21.60;44.04
10587;BME280;5341;47.606;7.576;2023-05-24T13:09:06;98987.41;;;21.64;43.76
10587;BME280;5341;47.606;7.576;2023-05-24T13:11:34;98986.91;;;21.67;43.96
10587;BME280;5341;47.606;7.576;2023-05-24T13:14:02;98985.09;;;21.73;44.18
10587;BME280;5341;47.606;7.576;2023-05-24T13:16:32;98987.88;;;21.78;44.15
10587;BME280;5341;47.606;7.576;2023-05-24T13:19:00;98981.44;;;21.84;44.33